createdAt,value
2017-04-08T00:00:03.112Z,99.99
2017-04-08T00:05:03.653Z,99.99
2017-04-08T00:10:03.417Z,99.99
2017-04-08T00:15:03.219Z,99.99
2017-04-08T00:20:03.020Z,99.99
2017-04-08T00:25:02.823Z,99.99
2017-04-08T00:30:03.602Z,99.99
2017-04-08T00:35:03.422Z,99.99
2017-04-08T00:40:03.255Z,99.99
2017-04-08T00:45:03.117Z,99.99
2017-04-08T00:50:02.767Z,99.99
2017-04-08T00:55:03.392Z,99.99
2017-04-08T01:00:03.265Z,99.99
2017-04-08T01:05:02.947Z,99.99
2017-04-08T01:10:03.664Z,99.99
2017-04-08T01:15:03.425Z,99.99
2017-04-08T01:20:03.088Z,99.99
2017-04-08T01:25:02.831Z,99.99
2017-04-08T01:30:03.577Z,99.99
2017-04-08T01:35:03.364Z,99.99
2017-04-08T01:40:03.017Z,99.99
2017-04-08T01:45:02.829Z,99.99
2017-04-08T01:50:03.457Z,99.99
2017-04-08T01:55:03.107Z,99.99
2017-04-08T02:00:02.688Z,99.99
2017-04-08T02:05:03.426Z,99.99
2017-04-08T02:10:03.094Z,99.99
2017-04-08T02:15:03.052Z,99.99
2017-04-08T02:20:03.666Z,99.99
2017-04-08T02:25:03.346Z,99.99
2017-04-08T02:30:03.986Z,99.99
2017-04-08T02:35:02.816Z,99.99
2017-04-08T02:40:03.643Z,99.99
2017-04-08T02:45:03.293Z,99.99
2017-04-08T02:50:02.926Z,99.99
2017-04-08T02:55:03.614Z,99.99
2017-04-08T03:00:03.269Z,99.99
2017-04-08T03:05:03.030Z,99.99
2017-04-08T03:10:02.906Z,99.99
2017-04-08T03:15:03.518Z,99.99
2017-04-08T03:20:03.348Z,99.99
2017-04-08T03:25:03.049Z,99.99
2017-04-08T03:30:02.884Z,99.99
2017-04-08T03:35:03.610Z,99.99
2017-04-08T03:40:03.462Z,99.99
2017-04-08T03:45:03.157Z,99.99
2017-04-08T03:50:02.733Z,99.88
2017-04-08T03:55:03.357Z,99.69
2017-04-08T04:00:03.113Z,99.79
2017-04-08T04:05:02.757Z,99.79
2017-04-08T04:10:03.495Z,99.79
2017-04-08T04:15:03.123Z,99.88
2017-04-08T04:20:03.774Z,99.69
2017-04-08T04:25:03.600Z,99.6
2017-04-08T04:30:03.422Z,99.31
2017-04-08T04:35:03.137Z,99.41
2017-04-08T04:40:02.778Z,99.22
2017-04-08T04:45:03.513Z,98.93
2017-04-08T04:50:03.173Z,98.83
2017-04-08T04:55:02.811Z,98.83
2017-04-08T05:00:03.675Z,98.83
2017-04-08T05:05:03.466Z,98.55
2017-04-08T05:10:03.116Z,98.55
2017-04-08T05:15:02.729Z,98.65
2017-04-08T05:20:03.391Z,98.65
2017-04-08T05:25:03.317Z,98.65
2017-04-08T05:30:02.908Z,98.65
2017-04-08T05:35:03.710Z,98.74
2017-04-08T05:40:03.497Z,98.74
2017-04-08T05:45:03.221Z,98.93
2017-04-08T05:50:02.824Z,99.22
2017-04-08T05:55:03.412Z,99.31
2017-04-08T06:00:03.267Z,99.6
2017-04-08T06:05:02.899Z,99.6
2017-04-08T06:10:03.682Z,99.88
2017-04-08T06:15:03.393Z,99.99
2017-04-08T06:20:03.128Z,99.99
2017-04-08T06:25:02.904Z,99.99
2017-04-08T06:30:03.526Z,99.99
2017-04-08T06:35:03.142Z,99.99
2017-04-08T06:40:02.823Z,99.99
2017-04-08T06:45:03.522Z,99.99
2017-04-08T06:50:03.255Z,99.99
2017-04-08T06:55:02.861Z,99.99
2017-04-08T07:00:03.489Z,99.99
2017-04-08T07:05:03.222Z,99.99
2017-04-08T07:10:03.055Z,99.99
2017-04-08T07:15:02.702Z,99.99
2017-04-08T07:20:03.542Z,99.99
2017-04-08T07:25:03.210Z,99.99
2017-04-08T07:30:03.001Z,99.99
2017-04-08T07:35:02.750Z,99.99
2017-04-08T07:40:03.567Z,99.99
2017-04-08T07:45:03.272Z,99.99
2017-04-08T07:50:03.110Z,99.99
2017-04-08T07:55:02.818Z,99.99
2017-04-08T08:00:03.623Z,99.99
2017-04-08T08:05:03.391Z,99.99
2017-04-08T08:10:03.047Z,99.99
2017-04-08T08:15:03.694Z,99.99
2017-04-08T08:20:03.489Z,99.99
2017-04-08T08:25:03.264Z,99.99
2017-04-08T08:30:02.963Z,99.99
2017-04-08T08:35:03.666Z,99.99
2017-04-08T08:40:03.439Z,99.99
2017-04-08T08:45:03.065Z,99.99
2017-04-08T08:50:03.719Z,99.99
2017-04-08T08:55:03.379Z,99.99
2017-04-08T09:00:02.992Z,99.99
2017-04-08T09:05:03.668Z,99.99
2017-04-08T09:10:03.465Z,99.99
2017-04-08T09:15:03.285Z,99.99
2017-04-08T09:20:03.087Z,99.99
2017-04-08T09:25:03.146Z,99.99
2017-04-08T09:30:03.602Z,99.99
2017-04-08T09:35:03.002Z,99.99
2017-04-08T09:40:03.632Z,99.99
2017-04-08T09:45:03.462Z,99.99
2017-04-08T09:50:03.698Z,99.99
2017-04-08T09:55:03.681Z,99.99
2017-04-08T10:00:02.959Z,99.99
2017-04-08T10:05:03.821Z,99.99
2017-04-08T10:10:02.894Z,98.71
2017-04-08T10:15:03.676Z,97.52
2017-04-08T10:20:03.499Z,96.03
2017-04-08T10:25:02.732Z,93.63
2017-04-08T10:30:03.559Z,88.79
2017-04-08T10:35:03.595Z,87.98
2017-04-08T10:40:02.916Z,85.19
2017-04-08T10:45:03.102Z,82.03
2017-04-08T10:50:02.781Z,81.95
2017-04-08T10:55:03.210Z,83.25
2017-04-08T11:00:03.029Z,81.71
2017-04-08T11:05:03.189Z,83.59
2017-04-08T11:10:02.994Z,84.31
2017-04-08T11:15:03.650Z,84.17
2017-04-08T11:20:03.291Z,84.61
2017-04-08T11:25:03.411Z,86.23
2017-04-08T11:30:03.375Z,87.04
2017-04-08T11:35:02.734Z,85.51
2017-04-08T11:40:03.592Z,85.17
2017-04-08T11:45:02.822Z,83.54
2017-04-08T11:50:03.182Z,83.83
2017-04-08T11:55:03.563Z,82.73
2017-04-08T12:00:03.322Z,81.67
2017-04-08T12:05:03.569Z,80.43
2017-04-08T12:10:02.943Z,80.27
2017-04-08T12:15:03.679Z,79.13
2017-04-08T12:20:03.450Z,79.03
2017-04-08T12:25:02.861Z,79.16
2017-04-08T12:30:03.084Z,76.82
2017-04-08T12:35:03.206Z,78.49
2017-04-08T12:40:03.658Z,76.86
2017-04-08T12:45:02.872Z,76.57
2017-04-08T12:50:03.631Z,76.71
2017-04-08T12:55:02.853Z,76.23
2017-04-08T13:00:02.947Z,74.79
2017-04-08T13:05:03.202Z,73.22
2017-04-08T13:10:03.258Z,74.43
2017-04-08T13:15:03.646Z,75.1
2017-04-08T13:20:03.359Z,75.23
2017-04-08T13:25:03.652Z,72.88
2017-04-08T13:30:02.785Z,72.63
2017-04-08T13:35:03.418Z,71.8
2017-04-08T13:40:02.896Z,71.28
2017-04-08T13:45:02.915Z,71.63
2017-04-08T13:50:03.405Z,71.86
2017-04-08T13:55:03.510Z,71.61
2017-04-08T14:00:03.240Z,70.23
2017-04-08T14:05:02.827Z,69.31
2017-04-08T14:10:03.578Z,68.98
2017-04-08T14:15:03.234Z,69.43
2017-04-08T14:20:03.705Z,69.46
2017-04-08T14:25:03.174Z,68.48
2017-04-08T14:30:02.960Z,66.94
2017-04-08T14:35:03.158Z,66.55
2017-04-08T14:40:02.777Z,67.19
2017-04-08T14:45:03.592Z,67.1
2017-04-08T14:50:02.893Z,68.12
2017-04-08T14:55:03.335Z,68.47
2017-04-08T15:00:02.927Z,68.76
2017-04-08T15:05:02.991Z,68.47
2017-04-08T15:10:03.524Z,67.74
2017-04-08T15:15:03.464Z,67.83
2017-04-08T15:20:03.698Z,67.61
2017-04-08T15:25:03.429Z,67.93
2017-04-08T15:30:02.836Z,68.41
2017-04-08T15:35:02.894Z,67.83
2017-04-08T15:40:03.006Z,67.9
2017-04-08T15:45:03.197Z,68.85
2017-04-08T15:50:03.312Z,68.57
2017-04-08T15:55:03.409Z,69.01
2017-04-08T16:00:03.581Z,69.59
2017-04-08T16:05:03.423Z,69.74
2017-04-08T16:10:03.532Z,70.51
2017-04-08T16:15:03.200Z,70.61
2017-04-08T16:20:03.283Z,70.23
2017-04-08T16:25:03.139Z,70.51
2017-04-08T16:30:03.116Z,70.76
2017-04-08T16:35:02.968Z,71.98
2017-04-08T16:40:02.849Z,72.36
2017-04-08T16:45:02.889Z,72.99
2017-04-08T16:50:02.929Z,73.38
2017-04-08T16:55:03.572Z,73.86
2017-04-08T17:00:03.270Z,74.11
2017-04-08T17:05:03.143Z,74.77
2017-04-08T17:10:03.199Z,75.07
2017-04-08T17:15:02.916Z,75.02
2017-04-08T17:20:02.897Z,75.7
2017-04-08T17:25:03.487Z,76.27
2017-04-08T17:30:03.327Z,76.52
2017-04-08T17:35:02.926Z,77.28
2017-04-08T17:40:03.714Z,78.53
2017-04-08T17:45:03.482Z,79.44
2017-04-08T17:50:03.227Z,80.02
2017-04-08T17:55:02.984Z,80.74
2017-04-08T18:00:02.785Z,81.41
2017-04-08T18:05:03.384Z,82.18
2017-04-08T18:10:03.014Z,82.81
2017-04-08T18:15:02.744Z,83.57
2017-04-08T18:20:03.414Z,84.48
2017-04-08T18:25:03.124Z,85.91
2017-04-08T18:30:02.877Z,86.87
2017-04-08T18:35:03.658Z,87.78
2017-04-08T18:40:03.303Z,88.83
2017-04-08T18:45:02.924Z,89.97
2017-04-08T18:50:03.575Z,91.74
2017-04-08T18:55:03.290Z,93.08
2017-04-08T19:00:03.070Z,94.6
2017-04-08T19:05:03.027Z,96.03
2017-04-08T19:10:02.800Z,98.46
2017-04-08T19:15:03.551Z,99.99
2017-04-08T19:20:03.445Z,99.99
2017-04-08T19:25:03.180Z,99.99
2017-04-08T19:30:03.018Z,99.99
2017-04-08T19:35:02.867Z,99.99
2017-04-08T19:40:03.661Z,99.99
2017-04-08T19:45:03.357Z,99.99
2017-04-08T19:50:03.203Z,99.99
2017-04-08T19:55:02.863Z,99.99
2017-04-08T20:00:03.671Z,99.99
2017-04-08T20:05:03.366Z,99.99
2017-04-08T20:10:03.035Z,99.99
2017-04-08T20:15:02.932Z,99.99
2017-04-08T20:20:03.000Z,99.99
2017-04-08T20:25:02.781Z,99.99
2017-04-08T20:30:03.454Z,99.99
2017-04-08T20:35:03.172Z,99.99
2017-04-08T20:40:02.931Z,99.99
2017-04-08T20:45:03.594Z,99.99
2017-04-08T20:50:03.235Z,99.99
2017-04-08T20:55:02.860Z,99.99
2017-04-08T21:00:03.435Z,99.99
2017-04-08T21:05:03.102Z,99.99
2017-04-08T21:10:02.938Z,99.99
2017-04-08T21:15:03.734Z,99.99
2017-04-08T21:20:03.524Z,99.99
2017-04-08T21:25:03.528Z,99.99
2017-04-08T21:30:03.565Z,99.99
2017-04-08T21:35:03.203Z,99.99
2017-04-08T21:40:02.942Z,99.99
2017-04-08T21:45:03.757Z,99.99
2017-04-08T21:50:03.565Z,99.99
2017-04-08T21:55:03.184Z,99.99
2017-04-08T22:00:02.796Z,99.99
2017-04-08T22:05:03.544Z,99.99
2017-04-08T22:10:03.491Z,99.99
2017-04-08T22:15:03.234Z,99.99
2017-04-08T22:20:03.025Z,99.99
2017-04-08T22:25:02.824Z,99.99
2017-04-08T22:30:03.402Z,99.99
2017-04-08T22:35:03.211Z,99.99
2017-04-08T22:40:02.839Z,99.99
2017-04-08T22:45:03.612Z,99.99
2017-04-08T22:50:03.220Z,99.99
2017-04-08T22:55:02.879Z,99.99
2017-04-08T23:00:03.662Z,99.99
2017-04-08T23:05:02.940Z,99.99
2017-04-08T23:10:03.630Z,99.99
2017-04-08T23:15:03.425Z,99.99
2017-04-08T23:20:03.113Z,99.99
2017-04-08T23:25:03.766Z,99.99
2017-04-08T23:30:03.782Z,99.99
2017-04-08T23:35:03.375Z,99.99
2017-04-08T23:40:03.103Z,99.99
2017-04-08T23:45:02.961Z,99.99
2017-04-08T23:50:03.649Z,99.99
2017-04-08T23:55:06.231Z,99.99
